Página principal
METAR-TAF:

METAR-TAF

Aeroportos :

Aeroporto Internacional Tan Son Nhat

Cidade de Ho Chi Minh, Vietname

latitude: 10-49N, longitude: 106-40E, altura: 19 m

Observação actual do tempo

O boletim foi feito há 33 minutos, às 19:30 UTC
Vento 7 kt de sudeste, variando entre este e su-sudeste
Temperatura 28°C
Humidade 70%
Pressão 1011 hPa
Visibilidade 10 km ou mais
Poucas nuvensa uma altura de 1700 ft
Nuvens dispersasa uma altura de 4000 ft

METAR: VVTS 251930Z 13007KT 090V150 9999 FEW017 SCT040 28/22 Q1011 NOSIG

Hora: 03:03 (20:03 UTC)

Previsão

O boletim foi feito há 3 horas e 3 minutos, às 17:00 UTC
Previsão válida de 25 às 18 UTC a 26 às 24 UTC
Vento 9 kt de sudeste
Visibilidade 10 km ou mais
Nuvens dispersasa uma altura de 1700 ft
Nuvens dispersasa uma altura de 4000 ft

TAF: VVTS 251700Z 2518/2624 14009KT 9999 SCT017 SCT040

Observações e previsões do tempo de mais de 4000 aeroportos (mensagens METAR e TAF).

As estações disponíveis são os pontos amarelos e vermelhos sobre o mapa.

Mova o rato sobre o mapa para ver o nome da estação.

Depois clique no ponto para visualizar as observações e previsões meteorológicas.

Para alterar o mapa : clique nos botões verdes com uma cruz preta para aumentar o zoom; no botão verde com uma pitada de zoom; ou nas setas verdes para mapas adjacentes.


METAR-TAF: